createdAt,value
2024-01-20T14:39:33.805Z,1023.64
2024-01-20T14:49:53.663Z,1023.49
2024-01-20T14:59:48.154Z,1023.52
2024-01-20T15:09:43.886Z,1023.67
2024-01-20T15:19:34.201Z,1023.82
2024-01-20T15:29:34.226Z,1023.92
2024-01-20T15:39:34.506Z,1023.99
2024-01-20T15:49:34.750Z,1023.94
2024-01-20T15:59:34.969Z,1023.88
2024-01-20T16:09:35.271Z,1023.87
2024-01-20T16:19:35.877Z,1023.92
2024-01-20T16:29:35.538Z,1024.05
2024-01-20T16:39:35.727Z,1024.04
2024-01-20T16:49:36.294Z,1023.93
2024-01-20T16:59:36.109Z,1023.84
2024-01-20T17:09:36.409Z,1023.98
2024-01-20T17:19:36.445Z,1024.18
2024-01-20T17:29:36.669Z,1024.36
2024-01-20T17:39:36.891Z,1024.28
2024-01-20T17:49:37.192Z,1024.23
2024-01-20T17:59:37.205Z,1024.20
2024-01-20T18:09:40.799Z,1024.12
2024-01-20T18:19:37.645Z,1024.18
2024-01-20T18:29:37.862Z,1024.13
2024-01-20T18:39:38.272Z,1024.12
2024-01-20T18:49:38.403Z,1024.17
2024-01-20T18:59:38.378Z,1024.21
2024-01-20T19:09:38.969Z,1024.29
2024-01-20T19:19:38.814Z,1024.37
2024-01-20T19:29:39.095Z,1024.36
2024-01-20T19:39:39.119Z,1024.32
2024-01-20T19:49:39.584Z,1024.44
2024-01-20T19:59:39.891Z,1024.52
2024-01-20T20:09:39.953Z,1024.34
2024-01-20T20:19:40.125Z,1024.38
2024-01-20T20:29:40.331Z,1024.22
2024-01-20T20:39:40.447Z,1024.08
2024-01-20T20:49:42.533Z,1024.00
2024-01-20T20:59:40.526Z,1024.02
2024-01-20T21:09:44.010Z,1023.95
2024-01-20T21:19:42.018Z,1023.97
2024-01-20T21:29:41.216Z,1024.14
2024-01-20T21:39:41.405Z,1024.06
2024-01-20T21:49:41.621Z,1024.13
2024-01-20T21:59:41.670Z,1023.98
2024-01-20T22:09:41.799Z,1023.87
2024-01-20T22:19:41.884Z,1023.87
2024-01-20T22:29:42.138Z,1024.02
2024-01-20T22:39:42.401Z,1024.03
2024-01-20T22:49:42.644Z,1023.97
2024-01-20T22:59:42.816Z,1024.07
2024-01-20T23:09:44.121Z,1023.98
2024-01-20T23:19:43.300Z,1024.13
2024-01-20T23:29:43.647Z,1024.12
2024-01-20T23:39:43.766Z,1024.15
2024-01-20T23:49:45.858Z,1024.17
2024-01-20T23:59:43.841Z,1024.44
